Hydes, Maryland
Current Conditions -  °F | °C
As of 10:39 PM on Saturday 22 Nov 2014 (Local Time) from KMTN Reporting Station
Clear Clear  
Wind Chill: 40°   Ceiling: Unl
Heat Index: 43°   Visibility: 10mi
Dew Point: 23°   Wind: 5mph
Humidity: 46%   Direction: 170°S
Pressure: 30.28"   Gusts: NA
Location:  39.48°N, 76.47°W
Report Text: KMTN 230339Z AUTO 17004KT 10SM CLR 06/M05 A3028 RMK AO2
Loading
Personal Weather Stations






























Interactive Weather Map New forecast layout! Learn more

10-Day Weather Forecast

Advertisements
Track Severe Weather on mobile